Time;durP1;ratioP1;P1;durP2;ratioP2;P2;SDS_P1;SDS_P2;PMS_P1;PMS_P2;Temp;Humidity;BMP_temperature;BMP_pressure;BME280_temperature;BME280_humidity;BME280_pressure;Samples;Min_cycle;Max_cycle;Signal;HPM_P1;HPM_P2
2021/11/21 00:03:33;;;;;;;16.10;8.70;;;;;;;9.15;77.78;99408.33;230670;1191;139198;-76
2021/11/21 00:08:37;;;;;;;12.20;8.80;;;;;;;9.18;77.63;99402.94;230688;1191;140559;-74
2021/11/21 00:13:42;;;;;;;12.50;7.60;;;;;;;9.19;77.38;99399.94;229862;1192;141768;-72
2021/11/21 00:18:55;;;;;;;10.80;7.10;;;;;;;9.15;77.14;99397.90;230753;1190;139320;-73
2021/11/21 00:24:48;;;;;;;8.50;7.00;;;;;;;9.13;76.96;99393.35;230753;1191;138849;-73
2021/11/21 00:29:54;;;;;;;10.00;7.10;;;;;;;9.11;77.19;99393.19;230011;1191;139125;-75
2021/11/21 00:35:30;;;;;;;10.30;7.80;;;;;;;9.12;76.94;99389.16;229359;1190;139271;-74
2021/11/21 00:40:34;;;;;;;12.70;8.40;;;;;;;9.08;76.74;99386.27;229037;1191;138917;-73
2021/11/21 00:45:38;;;;;;;11.80;7.80;;;;;;;9.03;76.99;99377.53;229788;1191;139121;-75
2021/11/21 00:50:52;;;;;;;12.50;6.90;;;;;;;9.03;76.73;99371.85;229683;1191;139802;-71
2021/11/21 00:56:15;;;;;;;;;;;;;;;;;;;;;
2021/11/21 01:01:23;;;;;;;64.70;33.00;;;;;;;8.95;76.88;99364.06;230272;1191;139195;-70
2021/11/21 01:06:31;;;;;;;56.40;25.00;;;;;;;8.93;76.67;99359.19;230441;1191;140123;-70
2021/11/21 01:11:35;;;;;;;22.00;19.60;;;;;;;8.94;76.77;99353.56;229414;1190;142939;-69
2021/11/21 01:16:49;;;;;;;12.30;8.00;;;;;;;8.93;76.60;99344.92;231103;1190;139788;-72
2021/11/21 01:21:54;;;;;;;12.10;8.70;;;;;;;8.89;76.40;99338.77;231189;1190;139413;-71
2021/11/21 01:26:59;;;;;;;11.60;9.00;;;;;;;8.89;76.21;99330.38;230411;1190;139710;-72
2021/11/21 01:32:06;;;;;;;9.60;7.10;;;;;;;8.91;76.33;99317.46;231171;1190;140931;-77
2021/11/21 01:37:10;;;;;;;10.20;7.30;;;;;;;8.90;76.23;99305.99;231125;1192;139774;-70
2021/11/21 01:42:16;;;;;;;8.80;6.70;;;;;;;8.91;76.02;99300.86;231123;1191;139013;-71
2021/11/21 01:47:20;;;;;;;9.80;6.50;;;;;;;8.90;75.95;99297.77;230776;1190;140805;-71
2021/11/21 01:52:24;;;;;;;9.10;8.20;;;;;;;8.91;76.06;99285.86;230889;1192;138634;-72
2021/11/21 01:57:38;;;;;;;11.30;7.20;;;;;;;8.91;76.03;99285.77;230339;1190;138719;-74
2021/11/21 02:02:46;;;;;;;8.80;6.90;;;;;;;8.93;75.70;99278.54;230212;1190;140173;-72
2021/11/21 02:08:33;;;;;;;8.30;6.90;;;;;;;8.92;75.66;99274.19;230804;1191;140207;-72
2021/11/21 02:13:37;;;;;;;13.30;7.90;;;;;;;8.89;75.67;99272.33;229492;1191;141216;-72
2021/11/21 02:18:41;;;;;;;11.60;7.70;;;;;;;8.87;75.42;99271.91;230131;1192;140940;-73
2021/11/21 02:23:46;;;;;;;11.50;7.30;;;;;;;8.82;75.46;99266.95;228953;1192;139919;-69
2021/11/21 02:28:54;;;;;;;19.90;9.30;;;;;;;8.80;75.47;99255.95;229234;1192;140041;-72
2021/11/21 02:33:59;;;;;;;11.20;7.60;;;;;;;8.79;75.52;99250.13;230137;1192;141461;-72
2021/11/21 02:39:03;;;;;;;9.30;4.60;;;;;;;8.76;75.30;99244.48;229023;1192;139043;-71
2021/11/21 02:44:07;;;;;;;14.10;10.00;;;;;;;8.73;75.31;99237.25;229421;1186;138763;-70
2021/11/21 02:49:11;;;;;;;11.90;6.50;;;;;;;8.74;75.30;99237.80;229329;1192;139943;-75
2021/11/21 02:54:27;;;;;;;;;;;;;;;;;;;;;
2021/11/21 02:59:39;;;;;;;11.50;7.60;;;;;;;8.73;75.25;99238.27;229336;1192;139466;-72
2021/11/21 03:05:03;;;;;;;14.50;8.70;;;;;;;8.71;75.09;99233.19;229851;1192;138733;-72
2021/11/21 03:10:09;;;;;;;12.10;8.70;;;;;;;8.72;75.00;99231.29;229905;1192;139643;-74
2021/11/21 03:15:14;;;;;;;12.60;8.90;;;;;;;8.68;75.01;99227.20;230087;1192;139328;-73
2021/11/21 03:20:26;;;;;;;19.90;9.80;;;;;;;8.65;75.04;99225.13;229114;1192;139809;-70
2021/11/21 03:25:30;;;;;;;15.00;8.80;;;;;;;8.67;74.84;99225.70;229921;1192;141050;-73
2021/11/21 03:30:35;;;;;;;15.40;8.70;;;;;;;8.64;74.87;99216.60;230866;1192;139034;-72
2021/11/21 03:35:38;;;;;;;14.00;9.00;;;;;;;8.60;75.05;99210.25;230428;1192;139432;-74
2021/11/21 03:40:43;;;;;;;15.50;10.80;;;;;;;8.64;74.75;99204.42;230715;1192;139909;-74
2021/11/21 03:45:47;;;;;;;10.20;7.40;;;;;;;8.66;74.76;99198.25;230881;1192;140382;-75
2021/11/21 03:50:51;;;;;;;17.60;10.40;;;;;;;8.64;74.86;99196.50;230566;1192;139690;-72
2021/11/21 03:55:56;;;;;;;18.60;10.70;;;;;;;8.63;74.67;99192.59;228962;1192;142203;-72
2021/11/21 04:01:00;;;;;;;16.50;10.00;;;;;;;8.62;74.60;99189.41;228885;1176;140069;-67
2021/11/21 04:06:04;;;;;;;19.20;12.10;;;;;;;8.54;74.61;99191.84;229263;1192;140081;-73
2021/11/21 04:11:30;;;;;;;20.00;11.80;;;;;;;8.50;74.81;99182.20;229228;1192;140348;-72
2021/11/21 04:16:35;;;;;;;18.90;10.70;;;;;;;8.47;74.76;99182.26;228110;1193;139794;-72
2021/11/21 04:21:58;;;;;;;17.50;12.80;;;;;;;8.43;75.18;99173.00;228590;1192;139480;-68
2021/11/21 04:27:04;;;;;;;16.90;11.60;;;;;;;8.40;74.90;99172.29;229771;1191;230154;-72
2021/11/21 04:32:09;;;;;;;17.40;11.00;;;;;;;8.37;74.94;99166.86;229188;1192;139975;-72
2021/11/21 04:37:19;;;;;;;13.00;8.30;;;;;;;8.32;75.02;99158.13;229268;1192;139332;-72
2021/11/21 04:43:11;;;;;;;;;;;;;;;;;;;;;
2021/11/21 04:48:19;;;;;;;15.80;10.60;;;;;;;8.32;75.26;99158.08;228885;1184;140912;-72
2021/11/21 04:53:26;;;;;;;17.80;11.30;;;;;;;8.28;75.27;99148.42;229408;1192;142344;-72
2021/11/21 04:58:31;;;;;;;16.20;10.30;;;;;;;8.22;75.31;99148.27;228612;1192;138934;-72
2021/11/21 05:03:36;;;;;;;20.40;11.50;;;;;;;8.25;75.38;99141.88;230375;1192;140987;-73
2021/11/21 05:08:41;;;;;;;18.90;11.90;;;;;;;8.22;75.39;99139.92;229812;1191;138955;-71
2021/11/21 05:13:55;;;;;;;17.70;10.00;;;;;;;8.20;75.28;99138.17;228530;1192;139729;-71
2021/11/21 05:19:02;;;;;;;18.10;11.50;;;;;;;8.19;75.46;99140.37;230068;1192;139943;-72
2021/11/21 05:24:07;;;;;;;16.10;10.30;;;;;;;8.17;75.48;99137.09;230492;1192;139887;-72
2021/11/21 05:29:14;;;;;;;18.50;11.20;;;;;;;8.16;75.40;99136.75;230847;1191;139498;-72
2021/11/21 05:34:43;;;;;;;18.40;11.80;;;;;;;8.19;75.31;99126.89;231205;1191;140029;-72
2021/11/21 05:40:31;;;;;;;18.60;11.20;;;;;;;8.19;75.33;99119.77;231023;1191;138990;-72
2021/11/21 05:45:35;;;;;;;20.30;10.40;;;;;;;8.21;75.38;99114.35;231207;1191;141361;-74
2021/11/21 05:50:39;;;;;;;18.30;10.50;;;;;;;8.24;75.13;99109.95;230225;1192;139439;-72
2021/11/21 05:55:47;;;;;;;21.60;11.70;;;;;;;8.23;75.24;99106.27;229943;1191;139648;-73
2021/11/21 06:00:52;;;;;;;19.10;11.30;;;;;;;8.19;75.20;99103.96;230701;1192;140435;-73
2021/11/21 06:06:53;;;;;;;19.90;12.00;;;;;;;8.18;75.08;99098.27;230026;1191;139166;-72
2021/11/21 06:11:31;;;;;;;18.70;13.80;;;;;;;8.17;75.12;99091.59;228927;1192;140224;-72
2021/11/21 06:16:36;;;;;;;15.40;11.30;;;;;;;8.15;75.29;99088.48;228993;1192;140568;-70
2021/11/21 06:21:42;;;;;;;17.30;11.10;;;;;;;8.13;75.16;99088.11;228867;1192;140811;-70
2021/11/21 06:26:46;;;;;;;18.00;12.40;;;;;;;8.13;74.91;99084.39;229110;1192;208182;-72
2021/11/21 06:32:03;;;;;;;17.00;10.80;;;;;;;8.13;75.34;99097.66;228513;1192;139863;-72
2021/11/21 06:37:13;;;;;;;18.00;13.00;;;;;;;8.11;75.32;99094.80;229545;1192;139724;-71
2021/11/21 06:42:22;;;;;;;18.90;12.40;;;;;;;8.09;75.59;99092.34;229069;1192;142353;-72
2021/11/21 06:47:27;;;;;;;19.30;12.30;;;;;;;8.13;75.33;99092.61;229053;1192;139196;-69
2021/11/21 06:52:56;;;;;;;17.80;12.50;;;;;;;8.13;75.27;99088.68;228935;1193;139138;-72
2021/11/21 06:58:00;;;;;;;18.60;11.90;;;;;;;8.14;75.32;99084.74;229943;1192;140141;-71
2021/11/21 07:03:05;;;;;;;19.30;12.10;;;;;;;8.17;75.46;99083.42;229101;1192;141239;-71
2021/11/21 07:08:10;;;;;;;14.00;9.90;;;;;;;8.21;75.14;99081.75;228310;1192;139411;-70
2021/11/21 07:13:14;;;;;;;16.90;11.30;;;;;;;8.20;75.26;99079.40;230074;1192;139646;-73
2021/11/21 07:18:27;;;;;;;18.30;11.30;;;;;;;8.16;75.00;99080.26;228503;1176;141617;-73
2021/11/21 07:23:34;;;;;;;22.90;12.50;;;;;;;8.14;75.28;99079.64;229673;1192;140311;-72
2021/11/21 07:28:39;;;;;;;18.50;12.40;;;;;;;8.19;74.95;99078.25;229123;1192;140276;-69
2021/11/21 07:33:43;;;;;;;20.30;13.00;;;;;;;8.22;75.04;99077.67;230720;1192;139605;-72
2021/11/21 07:38:50;;;;;;;20.40;13.20;;;;;;;8.20;74.95;99081.04;230768;1186;139451;-70
2021/11/21 07:43:57;;;;;;;19.80;13.60;;;;;;;8.22;74.90;99073.85;229737;1192;139677;-70
2021/11/21 07:49:10;;;;;;;15.90;10.90;;;;;;;8.24;74.78;99069.07;230872;1192;139027;-74
2021/11/21 07:54:15;;;;;;;19.00;12.40;;;;;;;8.27;74.69;99065.48;230640;1192;142974;-72
2021/11/21 07:59:29;;;;;;;21.90;9.80;;;;;;;8.25;74.53;99066.48;230743;1192;138960;-73
2021/11/21 08:04:34;;;;;;;16.80;11.80;;;;;;;8.27;74.47;99063.95;230341;1192;139074;-72
2021/11/21 08:09:38;;;;;;;16.80;11.70;;;;;;;8.34;74.63;99064.21;230577;1192;141324;-73
2021/11/21 08:14:43;;;;;;;14.80;11.70;;;;;;;8.39;74.71;99065.71;229740;1192;141298;-73
2021/11/21 08:19:47;;;;;;;15.10;11.80;;;;;;;8.41;74.50;99057.95;229897;1192;139742;-73
2021/11/21 08:24:52;;;;;;;16.60;10.70;;;;;;;8.43;74.32;99056.34;229231;1192;140416;-71
2021/11/21 08:29:59;;;;;;;17.90;12.00;;;;;;;8.36;74.34;99050.68;229261;1192;139719;-71
2021/11/21 08:35:08;;;;;;;18.70;12.20;;;;;;;8.32;74.71;99050.95;227942;1193;140150;-71
2021/11/21 08:40:12;;;;;;;20.80;11.60;;;;;;;8.30;74.61;99052.02;229039;1192;140946;-71
2021/11/21 08:45:27;;;;;;;17.80;10.70;;;;;;;8.31;74.44;99059.79;229754;1192;140269;-72
2021/11/21 08:50:37;;;;;;;18.20;12.30;;;;;;;8.28;74.47;99064.45;230001;1192;139551;-70
2021/11/21 08:55:49;;;;;;;16.40;11.90;;;;;;;8.26;74.48;99061.17;228424;1192;140341;-69
2021/11/21 09:00:56;;;;;;;16.50;10.70;;;;;;;8.36;74.73;99057.52;228745;1192;139707;-70
2021/11/21 09:06:19;;;;;;;17.30;12.40;;;;;;;8.42;74.75;99061.20;228801;1192;139981;-70
2021/11/21 09:11:23;;;;;;;18.80;12.90;;;;;;;8.47;74.69;99058.69;229137;1192;138940;-69
2021/11/21 09:16:30;;;;;;;18.70;12.50;;;;;;;8.52;74.63;99059.53;228536;1192;140101;-70
2021/11/21 09:21:37;;;;;;;15.90;9.80;;;;;;;8.57;74.50;99043.03;229188;1192;139173;-68
2021/11/21 09:26:42;;;;;;;15.00;11.10;;;;;;;8.57;74.46;99042.34;228717;1192;150607;-71
2021/11/21 09:31:58;;;;;;;18.20;12.20;;;;;;;8.56;74.49;99044.83;229398;1192;208126;-71
2021/11/21 09:37:12;;;;;;;21.50;14.20;;;;;;;8.59;74.19;99039.23;229923;1192;140183;-68
2021/11/21 09:42:19;;;;;;;18.30;12.20;;;;;;;8.65;74.33;99042.01;228722;1192;140235;-72
2021/11/21 09:47:23;;;;;;;15.00;10.80;;;;;;;8.65;74.26;99036.07;229663;1192;139726;-72
2021/11/21 09:52:27;;;;;;;20.90;14.80;;;;;;;8.63;74.13;99035.02;230728;1192;160405;-72
2021/11/21 09:57:32;;;;;;;25.50;15.50;;;;;;;8.67;74.03;99032.55;229370;1192;140911;-71
2021/11/21 10:03:02;;;;;;;28.10;15.30;;;;;;;8.66;74.00;99032.95;230835;1192;139296;-72
2021/11/21 10:08:17;;;;;;;22.70;13.50;;;;;;;8.62;73.95;99026.44;229612;1192;140070;-71
2021/11/21 10:14:04;;;;;;;20.30;13.20;;;;;;;8.56;73.87;99026.29;229171;1192;139221;-71
2021/11/21 10:19:10;;;;;;;23.50;14.60;;;;;;;8.55;74.06;99024.36;230013;1192;139006;-72
2021/11/21 10:24:31;;;;;;;21.40;14.60;;;;;;;8.52;73.99;99022.13;230415;1192;140332;-72
2021/11/21 10:29:43;;;;;;;23.00;14.10;;;;;;;8.47;74.13;99027.46;229559;1192;138966;-72
2021/11/21 10:35:28;;;;;;;;;;;;;;;;;;;;;
2021/11/21 10:40:36;;;;;;;20.30;13.20;;;;;;;8.42;74.08;99027.58;228980;1192;139100;-71
2021/11/21 10:45:39;;;;;;;25.10;14.40;;;;;;;8.39;74.12;99029.13;228880;1192;139716;-71
2021/11/21 10:50:50;;;;;;;19.60;11.90;;;;;;;8.43;74.32;99027.17;228843;1192;139315;-71
2021/11/21 10:56:10;;;;;;;28.20;16.10;;;;;;;8.44;74.14;99025.65;228813;1192;141119;-71
2021/11/21 11:01:26;;;;;;;19.30;12.60;;;;;;;8.47;74.55;99015.23;229189;1192;141471;-72
2021/11/21 11:06:30;;;;;;;23.90;16.10;;;;;;;8.52;74.24;99015.64;228968;1192;140407;-70
2021/11/21 11:11:35;;;;;;;21.20;14.40;;;;;;;8.52;74.26;99013.74;230017;1192;139256;-72
2021/11/21 11:16:39;;;;;;;21.50;13.70;;;;;;;8.54;74.10;99013.88;228902;1192;140342;-69
2021/11/21 11:21:46;;;;;;;25.70;15.50;;;;;;;8.48;74.05;99016.58;229457;1192;139151;-72
2021/11/21 11:27:01;;;;;;;;;;;;;;;8.50;74.21;99014.91;229733;1192;140423;-72
2021/11/21 11:32:42;;;;;;;24.40;16.40;;;;;;;8.49;74.23;99015.45;229796;1192;124586;-74
2021/11/21 11:37:51;;;;;;;21.90;13.90;;;;;;;8.50;74.26;99008.77;229107;1192;140557;-72
2021/11/21 11:42:58;;;;;;;22.40;14.50;;;;;;;8.50;74.02;99007.01;230932;1192;139736;-74
2021/11/21 11:48:38;;;;;;;29.40;15.00;;;;;;;8.49;74.19;99010.17;230976;1192;139047;-73
2021/11/21 11:53:49;;;;;;;24.70;14.10;;;;;;;8.51;74.01;99001.08;230944;1192;140899;-75
2021/11/21 11:58:58;;;;;;;29.80;15.50;;;;;;;8.56;74.12;98997.95;230994;1192;140310;-73
2021/11/21 12:04:07;;;;;;;22.30;13.90;;;;;;;8.63;74.26;98995.42;230250;1192;140034;-71
2021/11/21 12:09:47;;;;;;;23.00;13.50;;;;;;;8.73;74.04;98996.20;229137;1192;229687;-71
2021/11/21 12:14:52;;;;;;;27.30;16.60;;;;;;;8.86;74.07;98995.19;230392;1192;139474;-72
2021/11/21 12:19:57;;;;;;;25.10;16.20;;;;;;;8.88;74.14;98996.79;229662;1192;141158;-72
2021/11/21 12:25:23;;;;;;;22.70;13.80;;;;;;;8.89;74.18;99003.56;229450;1192;140603;-69
2021/11/21 12:30:39;;;;;;;24.10;16.00;;;;;;;8.89;73.85;99014.13;228353;1193;143333;-71
2021/11/21 12:35:53;;;;;;;26.10;16.30;;;;;;;8.90;73.92;99017.98;229105;1192;140600;-70
2021/11/21 12:41:05;;;;;;;25.00;16.00;;;;;;;8.86;73.83;99014.38;228603;1192;140057;-70
2021/11/21 12:46:12;;;;;;;23.80;15.80;;;;;;;8.78;74.05;99014.03;229148;1192;141420;-69
2021/11/21 12:51:18;;;;;;;24.70;14.90;;;;;;;8.68;73.86;99010.45;228431;1193;141655;-69
2021/11/21 12:56:25;;;;;;;24.70;14.90;;;;;;;8.69;74.03;99009.09;229140;1192;140079;-72
2021/11/21 13:01:30;;;;;;;25.50;14.90;;;;;;;8.65;74.01;99006.52;229277;1192;140541;-69
2021/11/21 13:06:38;;;;;;;30.00;16.20;;;;;;;8.62;73.88;98995.19;228591;1192;139928;-71
2021/11/21 13:11:49;;;;;;;28.00;16.10;;;;;;;8.67;73.86;98994.02;228728;1192;139481;-70
2021/11/21 13:16:57;;;;;;;20.40;11.80;;;;;;;8.72;74.23;98995.74;228810;1192;141098;-70
2021/11/21 13:22:02;;;;;;;;;;;;;;;8.73;74.19;98996.25;230102;1192;139947;-72
2021/11/21 13:27:09;;;;;;;26.40;16.50;;;;;;;8.70;74.13;98994.76;229282;1193;125446;-71
2021/11/21 13:32:16;;;;;;;25.10;15.50;;;;;;;8.72;74.15;99003.71;228702;1192;139451;-71
2021/11/21 13:37:25;;;;;;;25.60;17.10;;;;;;;8.66;74.29;99002.86;229176;1192;139404;-70
2021/11/21 13:42:29;;;;;;;28.20;16.10;;;;;;;8.63;74.21;99005.89;229180;1192;139494;-69
2021/11/21 13:47:34;;;;;;;27.40;16.50;;;;;;;8.62;74.12;99007.90;229591;1192;139403;-75
2021/11/21 13:52:43;;;;;;;31.00;18.40;;;;;;;8.65;74.12;99011.92;230815;1192;151086;-75
2021/11/21 13:57:48;;;;;;;23.70;12.90;;;;;;;8.61;74.16;99011.85;230625;1192;140546;-75
2021/11/21 14:03:02;;;;;;;26.10;15.10;;;;;;;8.55;73.97;99023.73;228334;1192;139379;-72
2021/11/21 14:08:10;;;;;;;25.50;16.30;;;;;;;8.54;74.10;99025.47;230647;1192;140386;-71
2021/11/21 14:13:17;;;;;;;24.50;15.70;;;;;;;8.47;73.83;99025.17;229937;1192;139884;-72
2021/11/21 14:18:25;;;;;;;25.30;16.10;;;;;;;8.40;74.12;99023.45;229842;1192;138944;-71
2021/11/21 14:23:31;;;;;;;29.10;17.80;;;;;;;8.40;74.04;99032.59;229040;1192;141617;-72
2021/11/21 14:28:38;;;;;;;28.50;16.30;;;;;;;8.38;74.17;99035.95;228571;1192;141099;-73
2021/11/21 14:36:39;;;;;;;32.40;16.90;;;;;;;8.40;74.56;99043.90;230921;1209;635737;-74
2021/11/21 14:41:51;;;;;;;23.30;16.10;;;;;;;8.32;74.15;99051.38;227220;1195;140027;-72
2021/11/21 14:46:56;;;;;;;30.50;16.30;;;;;;;8.25;74.27;99052.50;228294;1195;139592;-77
2021/11/21 14:52:03;;;;;;;27.80;18.20;;;;;;;8.19;74.62;99057.28;227469;1196;139457;-72
2021/11/21 14:57:14;;;;;;;25.50;15.60;;;;;;;8.16;74.99;99060.61;227639;1195;139915;-72
2021/11/21 15:02:22;;;;;;;23.70;15.50;;;;;;;8.15;74.93;99060.64;228138;1196;141059;-75
2021/11/21 15:07:52;;;;;;;33.40;17.20;;;;;;;8.14;74.81;99061.74;227158;1196;138947;-76
2021/11/21 15:12:58;;;;;;;26.90;17.10;;;;;;;8.10;74.90;99073.13;226826;1196;163240;-76
2021/11/21 15:18:01;;;;;;;27.40;17.50;;;;;;;7.99;74.96;99070.77;227468;1196;139575;-74
2021/11/21 15:23:08;;;;;;;21.90;14.70;;;;;;;7.91;74.79;99074.83;227392;1196;139219;-75
2021/11/21 15:28:12;;;;;;;29.00;16.00;;;;;;;7.90;75.28;99075.59;226732;1196;150532;-74
2021/11/21 15:33:49;;;;;;;26.80;16.00;;;;;;;7.90;75.60;99079.13;226680;1196;138889;-78
2021/11/21 15:38:56;;;;;;;27.30;17.10;;;;;;;7.87;75.53;99075.68;226988;1196;138490;-76
2021/11/21 15:44:04;;;;;;;26.90;17.80;;;;;;;7.87;75.43;99075.03;226671;1196;138945;-74
2021/11/21 15:49:10;;;;;;;23.40;16.30;;;;;;;7.86;76.00;99076.08;229593;1196;150734;-76
2021/11/21 15:54:16;;;;;;;28.00;15.60;;;;;;;7.89;76.31;99079.44;229795;1196;139048;-74
2021/11/21 15:59:23;;;;;;;29.30;15.70;;;;;;;7.89;75.96;99087.39;229630;1196;139316;-74
2021/11/21 16:04:28;;;;;;;26.80;17.80;;;;;;;7.90;76.17;99096.44;229505;1196;140051;-74
2021/11/21 16:09:33;;;;;;;25.90;16.90;;;;;;;7.91;76.33;99101.94;229806;1196;139409;-75
2021/11/21 16:14:40;;;;;;;26.40;16.40;;;;;;;7.89;76.60;99104.87;228907;1196;138631;-74
2021/11/21 16:19:45;;;;;;;24.50;16.80;;;;;;;7.84;76.52;99101.30;229252;1196;140015;-77
2021/11/21 16:24:52;;;;;;;26.90;17.00;;;;;;;7.85;76.92;99100.30;228408;1196;139887;-74
2021/11/21 16:29:58;;;;;;;26.50;17.80;;;;;;;7.86;76.97;99106.77;229185;1196;139976;-75
2021/11/21 16:35:37;;;;;;;;;;;;;;;;;;;;;
2021/11/21 16:40:49;;;;;;;32.70;17.90;;;;;;;7.87;77.21;99113.89;228112;1193;138596;-74
2021/11/21 16:46:06;;;;;;;28.60;19.70;;;;;;;7.91;77.31;99111.70;227827;1193;140428;-73
2021/11/21 16:51:10;;;;;;;41.30;19.70;;;;;;;7.91;77.38;99118.92;228190;1193;138972;-76
2021/11/21 16:56:31;;;;;;;29.70;18.10;;;;;;;7.87;77.46;99119.77;228049;1193;139653;-77
2021/11/21 17:01:39;;;;;;;34.00;19.70;;;;;;;7.83;77.57;99124.20;228685;1193;139316;-77
2021/11/21 17:06:45;;;;;;;35.10;21.40;;;;;;;7.80;77.61;99128.00;228497;1193;140961;-79
2021/11/21 17:11:53;;;;;;;31.20;19.90;;;;;;;7.78;77.75;99130.20;228912;1193;139718;-77
2021/11/21 17:17:37;;;;;;;;;;;;;;;;;;;;;
2021/11/21 17:22:45;;;;;;;34.80;19.60;;;;;;;7.71;77.97;99139.73;227996;1193;139302;-73
2021/11/21 17:27:56;;;;;;;35.40;20.20;;;;;;;7.74;78.08;99144.05;228914;1193;140175;-78
2021/11/21 17:33:43;;;;;;;;;;;;;;;;;;;;;
2021/11/21 17:38:48;;;;;;;31.70;18.90;;;;;;;7.65;77.96;99156.21;229134;1193;138666;-74
2021/11/21 17:43:59;;;;;;;36.80;21.20;;;;;;;7.59;78.17;99155.92;228334;1193;139128;-71
2021/11/21 17:49:07;;;;;;;31.10;19.70;;;;;;;7.63;78.06;99159.89;228031;1192;139234;-72
2021/11/21 17:54:16;;;;;;;37.60;18.00;;;;;;;7.61;78.42;99164.17;229740;1193;138961;-71
2021/11/21 17:59:25;;;;;;;35.80;19.90;;;;;;;7.59;78.61;99170.49;229744;1193;139463;-71
2021/11/21 18:04:30;;;;;;;36.40;20.10;;;;;;;7.64;78.61;99179.00;230237;1192;141034;-71
2021/11/21 18:09:35;;;;;;;47.00;22.30;;;;;;;7.57;78.43;99183.98;229936;1193;139666;-71
2021/11/21 18:14:40;;;;;;;52.00;22.20;;;;;;;7.51;78.71;99189.50;230357;1193;138877;-71
2021/11/21 18:19:44;;;;;;;38.70;21.20;;;;;;;7.55;79.03;99190.92;228985;1193;139288;-72
2021/11/21 18:24:49;;;;;;;38.10;22.90;;;;;;;7.57;78.99;99192.40;228913;1193;140294;-72
2021/11/21 18:30:03;;;;;;;30.60;16.70;;;;;;;7.55;78.93;99202.02;228917;1192;139753;-72
2021/11/21 18:35:11;;;;;;;37.40;22.20;;;;;;;7.54;79.10;99206.72;229254;1193;139848;-75
2021/11/21 18:40:15;;;;;;;40.80;23.10;;;;;;;7.55;79.05;99209.97;229823;1193;139427;-77
2021/11/21 18:45:22;;;;;;;23.80;15.70;;;;;;;7.57;79.34;99213.52;228990;1193;140640;-77
2021/11/21 18:50:28;;;;;;;32.90;20.90;;;;;;;7.56;79.36;99218.77;229424;1193;140285;-77
2021/11/21 18:55:35;;;;;;;32.30;19.10;;;;;;;7.59;79.57;99225.67;229191;1193;138506;-78
2021/11/21 19:00:43;;;;;;;38.40;21.80;;;;;;;7.63;79.56;99228.86;228553;1193;141323;-77
2021/11/21 19:05:53;;;;;;;32.10;20.10;;;;;;;7.66;79.70;99233.57;229065;1192;139509;-69
2021/11/21 19:10:57;;;;;;;36.50;20.90;;;;;;;7.67;79.93;99235.92;228543;1193;139133;-72
2021/11/21 19:16:01;;;;;;;40.20;23.00;;;;;;;7.68;79.50;99243.49;228630;1193;139075;-71
2021/11/21 19:21:06;;;;;;;33.20;20.50;;;;;;;7.66;79.82;99247.55;228466;1193;139717;-71
2021/11/21 19:26:16;;;;;;;35.70;21.00;;;;;;;7.62;79.81;99256.96;228899;1193;140625;-71
2021/11/21 19:31:23;;;;;;;29.80;17.50;;;;;;;7.63;80.09;99257.13;228960;1193;139289;-74
2021/11/21 19:36:27;;;;;;;36.20;21.00;;;;;;;7.61;79.89;99266.69;229037;1192;139576;-71
2021/11/21 19:41:36;;;;;;;29.80;17.20;;;;;;;7.60;80.23;99276.00;229798;1192;140234;-69
2021/11/21 19:47:10;;;;;;;28.60;16.70;;;;;;;7.56;79.97;99275.98;228487;1193;139429;-72
2021/11/21 19:52:14;;;;;;;30.50;19.20;;;;;;;7.56;79.91;99283.36;229619;1193;139506;-73
2021/11/21 19:57:19;;;;;;;36.20;19.90;;;;;;;7.53;79.88;99289.69;229404;1193;138721;-75
2021/11/21 20:02:57;;;;;;;39.00;22.20;;;;;;;7.51;80.11;99289.96;228610;1192;138531;-75
2021/11/21 20:08:02;;;;;;;32.50;20.00;;;;;;;7.54;80.49;99291.23;229280;1193;140986;-72
2021/11/21 20:13:16;;;;;;;36.20;22.80;;;;;;;7.59;80.28;99298.34;230462;1192;139310;-72
2021/11/21 20:18:23;;;;;;;44.50;25.60;;;;;;;7.58;80.29;99304.80;230595;1192;139214;-76
2021/11/21 20:23:32;;;;;;;44.60;24.30;;;;;;;7.60;80.44;99304.73;230362;1193;141042;-73
2021/11/21 20:28:50;;;;;;;39.60;23.60;;;;;;;7.67;80.51;99310.74;229686;1193;139114;-72
2021/11/21 20:39:23;;;;;;;37.70;23.50;;;;;;;7.64;80.20;99324.58;229256;1193;139038;-72
2021/11/21 20:44:31;;;;;;;36.20;22.30;;;;;;;7.63;80.45;99326.99;228412;1193;160228;-72
2021/11/21 20:49:38;;;;;;;41.90;24.10;;;;;;;7.67;80.57;99337.34;228958;1193;139542;-72
2021/11/21 20:54:53;;;;;;;41.20;23.10;;;;;;;7.67;80.47;99343.33;229292;1193;140165;-73
2021/11/21 21:00:10;;;;;;;44.50;24.70;;;;;;;7.66;80.49;99342.77;229250;1193;138680;-74
2021/11/21 21:05:35;;;;;;;41.20;24.50;;;;;;;7.66;80.65;99346.33;228709;1193;140024;-72
2021/11/21 21:10:43;;;;;;;43.70;23.20;;;;;;;7.68;80.64;99347.66;228710;1193;139902;-71
2021/11/21 21:15:50;;;;;;;39.90;23.50;;;;;;;7.67;80.69;99349.63;227973;1194;140940;-71
2021/11/21 21:20:57;;;;;;;40.00;22.10;;;;;;;7.65;80.83;99359.33;228304;1193;140121;-71
2021/11/21 21:26:05;;;;;;;41.70;24.50;;;;;;;7.67;80.55;99362.73;228706;1193;142069;-77
2021/11/21 21:31:20;;;;;;;42.20;25.50;;;;;;;7.63;80.31;99365.36;228095;1193;139201;-75
2021/11/21 21:36:30;;;;;;;43.70;26.90;;;;;;;7.58;80.80;99367.12;228379;1193;139078;-77
2021/11/21 21:41:35;;;;;;;51.00;26.60;;;;;;;7.59;80.77;99367.52;228943;1193;139037;-77
2021/11/21 21:46:45;;;;;;;40.70;24.80;;;;;;;7.56;80.90;99370.80;227853;1193;140247;-70
2021/11/21 21:52:09;;;;;;;37.90;24.30;;;;;;;7.54;80.77;99371.64;228888;1193;138561;-73
2021/11/21 21:57:14;;;;;;;36.00;21.30;;;;;;;7.54;81.09;99378.74;228697;1193;139641;-72
2021/11/21 22:02:20;;;;;;;40.10;23.70;;;;;;;7.58;80.83;99381.23;228027;1193;139844;-72
2021/11/21 22:07:33;;;;;;;36.00;22.60;;;;;;;7.58;80.98;99382.58;230200;1192;139476;-74
2021/11/21 22:12:43;;;;;;;40.70;24.00;;;;;;;7.56;80.90;99382.56;230382;1193;139276;-74
2021/11/21 22:17:52;;;;;;;43.00;24.60;;;;;;;7.58;80.66;99382.98;230380;1193;140434;-72
2021/11/21 22:22:57;;;;;;;36.80;23.80;;;;;;;7.59;80.77;99380.96;230654;1193;139342;-74
2021/11/21 22:28:02;;;;;;;47.00;25.20;;;;;;;7.59;80.70;99383.18;230407;1193;139297;-72
2021/11/21 22:33:07;;;;;;;34.50;21.00;;;;;;;7.59;80.30;99384.48;230411;1193;225931;-72
2021/11/21 22:38:12;;;;;;;35.70;23.90;;;;;;;7.57;80.14;99388.42;229144;1193;139933;-72
2021/11/21 22:43:18;;;;;;;35.40;22.40;;;;;;;7.52;80.54;99393.27;228922;1193;139292;-72
2021/11/21 22:48:22;;;;;;;30.20;18.90;;;;;;;7.50;80.74;99394.63;229695;1193;138492;-75
2021/11/21 22:53:35;;;;;;;37.50;21.00;;;;;;;7.49;80.58;99393.86;229406;1193;140340;-72
2021/11/21 22:59:31;;;;;;;;;;;;;;;;;;;;;
2021/11/21 23:04:47;;;;;;;34.00;22.50;;;;;;;7.49;80.90;99408.40;227888;1186;139469;-75
2021/11/21 23:09:55;;;;;;;36.90;22.90;;;;;;;7.49;80.65;99414.84;228118;1193;139565;-71
2021/11/21 23:15:01;;;;;;;40.70;24.10;;;;;;;7.50;80.95;99413.80;228244;1193;140195;-72
2021/11/21 23:20:08;;;;;;;43.30;25.40;;;;;;;7.47;80.67;99416.46;228669;1192;139249;-71
2021/11/21 23:25:16;;;;;;;27.40;16.70;;;;;;;7.44;80.73;99417.17;228766;1193;140189;-69
2021/11/21 23:30:21;;;;;;;32.30;19.90;;;;;;;7.40;80.67;99417.42;228597;1193;139587;-72
2021/11/21 23:35:28;;;;;;;38.70;19.80;;;;;;;7.36;80.81;99419.22;228632;1193;141361;-72
2021/11/21 23:40:45;;;;;;;42.10;19.00;;;;;;;7.32;81.19;99426.06;229253;1193;139032;-74
2021/11/21 23:45:52;;;;;;;34.10;19.70;;;;;;;7.29;80.71;99435.26;228243;1193;139995;-76
2021/11/21 23:51:01;;;;;;;31.90;20.60;;;;;;;7.31;81.26;99440.19;228837;1193;139067;-76
2021/11/21 23:56:05;;;;;;;29.90;18.10;;;;;;;7.33;81.03;99449.96;228144;1193;139624;-72
